sensor_id;sensor_type;location;lat;lon;timestamp;P1;durP1;ratioP1;P2;durP2;ratioP2
41903;SDS011;27586;51.124;4.182;2023-08-01T00:00:00;7.78;;;6.50;;
41903;SDS011;27586;51.124;4.182;2023-08-01T00:02:28;9.15;;;7.43;;
41903;SDS011;27586;51.124;4.182;2023-08-01T00:04:54;10.60;;;7.47;;
41903;SDS011;27586;51.124;4.182;2023-08-01T00:07:20;8.90;;;7.78;;
41903;SDS011;27586;51.124;4.182;2023-08-01T00:09:45;10.07;;;8.30;;
41903;SDS011;27586;51.124;4.182;2023-08-01T00:12:11;10.13;;;8.23;;
41903;SDS011;27586;51.124;4.182;2023-08-01T00:14:37;10.77;;;8.40;;
41903;SDS011;27586;51.124;4.182;2023-08-01T00:17:02;13.05;;;9.63;;
41903;SDS011;27586;51.124;4.182;2023-08-01T00:19:28;12.73;;;9.50;;
41903;SDS011;27586;51.124;4.182;2023-08-01T00:21:54;11.48;;;9.40;;
41903;SDS011;27586;51.124;4.182;2023-08-01T00:24:19;13.32;;;10.15;;
41903;SDS011;27586;51.124;4.182;2023-08-01T00:26:45;12.68;;;10.18;;
41903;SDS011;27586;51.124;4.182;2023-08-01T00:29:11;14.45;;;10.18;;
41903;SDS011;27586;51.124;4.182;2023-08-01T00:31:37;15.43;;;9.77;;
41903;SDS011;27586;51.124;4.182;2023-08-01T00:34:02;11.90;;;9.25;;
41903;SDS011;27586;51.124;4.182;2023-08-01T00:36:28;13.32;;;9.98;;
41903;SDS011;27586;51.124;4.182;2023-08-01T00:38:54;15.52;;;10.35;;
41903;SDS011;27586;51.124;4.182;2023-08-01T00:41:19;12.65;;;9.35;;
41903;SDS011;27586;51.124;4.182;2023-08-01T00:43:45;13.68;;;9.98;;
41903;SDS011;27586;51.124;4.182;2023-08-01T00:46:11;11.65;;;9.90;;
41903;SDS011;27586;51.124;4.182;2023-08-01T00:48:36;10.63;;;9.35;;
41903;SDS011;27586;51.124;4.182;2023-08-01T00:51:06;12.07;;;8.75;;
41903;SDS011;27586;51.124;4.182;2023-08-01T00:53:34;11.32;;;8.80;;
41903;SDS011;27586;51.124;4.182;2023-08-01T00:56:00;11.20;;;9.05;;
41903;SDS011;27586;51.124;4.182;2023-08-01T00:58:26;13.07;;;8.57;;
41903;SDS011;27586;51.124;4.182;2023-08-01T01:00:52;12.98;;;9.32;;
41903;SDS011;27586;51.124;4.182;2023-08-01T01:03:17;10.93;;;8.30;;
41903;SDS011;27586;51.124;4.182;2023-08-01T01:08:40;14.07;;;9.15;;
41903;SDS011;27586;51.124;4.182;2023-08-01T01:11:06;10.88;;;8.88;;
41903;SDS011;27586;51.124;4.182;2023-08-01T01:13:33;12.98;;;8.90;;
41903;SDS011;27586;51.124;4.182;2023-08-01T01:15:58;15.38;;;9.32;;
41903;SDS011;27586;51.124;4.182;2023-08-01T01:18:24;13.48;;;8.75;;
41903;SDS011;27586;51.124;4.182;2023-08-01T01:20:49;14.13;;;9.13;;
41903;SDS011;27586;51.124;4.182;2023-08-01T01:23:15;9.88;;;8.15;;
41903;SDS011;27586;51.124;4.182;2023-08-01T01:25:42;11.52;;;8.88;;
41903;SDS011;27586;51.124;4.182;2023-08-01T01:28:08;11.57;;;8.63;;
41903;SDS011;27586;51.124;4.182;2023-08-01T01:30:35;11.18;;;8.73;;
41903;SDS011;27586;51.124;4.182;2023-08-01T01:33:01;16.05;;;11.30;;
41903;SDS011;27586;51.124;4.182;2023-08-01T01:35:28;14.50;;;10.18;;
41903;SDS011;27586;51.124;4.182;2023-08-01T01:37:54;15.07;;;9.75;;
41903;SDS011;27586;51.124;4.182;2023-08-01T01:40:20;14.13;;;10.35;;
41903;SDS011;27586;51.124;4.182;2023-08-01T01:42:45;15.45;;;10.35;;
41903;SDS011;27586;51.124;4.182;2023-08-01T01:45:11;13.50;;;10.60;;
41903;SDS011;27586;51.124;4.182;2023-08-01T01:47:37;15.48;;;10.70;;
41903;SDS011;27586;51.124;4.182;2023-08-01T01:50:02;15.70;;;11.02;;
41903;SDS011;27586;51.124;4.182;2023-08-01T01:52:30;13.38;;;10.18;;
41903;SDS011;27586;51.124;4.182;2023-08-01T01:54:56;12.32;;;10.77;;
41903;SDS011;27586;51.124;4.182;2023-08-01T01:57:21;16.15;;;11.07;;
41903;SDS011;27586;51.124;4.182;2023-08-01T01:59:47;15.80;;;10.95;;
41903;SDS011;27586;51.124;4.182;2023-08-01T02:02:12;17.05;;;11.70;;
41903;SDS011;27586;51.124;4.182;2023-08-01T02:04:39;15.23;;;11.05;;
41903;SDS011;27586;51.124;4.182;2023-08-01T02:07:05;14.25;;;10.93;;
41903;SDS011;27586;51.124;4.182;2023-08-01T02:09:30;15.23;;;11.75;;
41903;SDS011;27586;51.124;4.182;2023-08-01T02:11:56;18.38;;;12.30;;
41903;SDS011;27586;51.124;4.182;2023-08-01T02:14:22;16.95;;;12.32;;
41903;SDS011;27586;51.124;4.182;2023-08-01T02:16:47;15.38;;;12.40;;
41903;SDS011;27586;51.124;4.182;2023-08-01T02:19:13;17.30;;;12.40;;
41903;SDS011;27586;51.124;4.182;2023-08-01T02:21:38;17.17;;;12.52;;
41903;SDS011;27586;51.124;4.182;2023-08-01T02:24:04;15.60;;;12.45;;
41903;SDS011;27586;51.124;4.182;2023-08-01T02:26:30;18.73;;;13.60;;
41903;SDS011;27586;51.124;4.182;2023-08-01T02:28:56;17.27;;;13.73;;
41903;SDS011;27586;51.124;4.182;2023-08-01T02:31:21;19.02;;;14.00;;
41903;SDS011;27586;51.124;4.182;2023-08-01T02:33:47;17.67;;;13.60;;
41903;SDS011;27586;51.124;4.182;2023-08-01T02:36:13;17.48;;;13.75;;
41903;SDS011;27586;51.124;4.182;2023-08-01T02:38:39;16.77;;;14.10;;
41903;SDS011;27586;51.124;4.182;2023-08-01T02:41:04;15.82;;;13.40;;
41903;SDS011;27586;51.124;4.182;2023-08-01T02:43:30;18.75;;;14.15;;
41903;SDS011;27586;51.124;4.182;2023-08-01T02:45:55;26.58;;;14.45;;
41903;SDS011;27586;51.124;4.182;2023-08-01T02:48:21;20.40;;;14.43;;
41903;SDS011;27586;51.124;4.182;2023-08-01T02:50:47;22.77;;;14.32;;
41903;SDS011;27586;51.124;4.182;2023-08-01T02:53:13;18.50;;;14.63;;
41903;SDS011;27586;51.124;4.182;2023-08-01T02:55:38;20.70;;;14.70;;
41903;SDS011;27586;51.124;4.182;2023-08-01T02:58:04;18.63;;;14.55;;
41903;SDS011;27586;51.124;4.182;2023-08-01T03:00:30;20.67;;;14.82;;
41903;SDS011;27586;51.124;4.182;2023-08-01T03:02:57;22.30;;;14.80;;
41903;SDS011;27586;51.124;4.182;2023-08-01T03:05:22;20.98;;;14.77;;
41903;SDS011;27586;51.124;4.182;2023-08-01T03:07:48;20.58;;;15.35;;
41903;SDS011;27586;51.124;4.182;2023-08-01T03:10:14;21.58;;;15.95;;
41903;SDS011;27586;51.124;4.182;2023-08-01T03:12:39;23.55;;;15.18;;
41903;SDS011;27586;51.124;4.182;2023-08-01T03:15:05;19.70;;;15.02;;
41903;SDS011;27586;51.124;4.182;2023-08-01T03:17:33;19.73;;;14.40;;
41903;SDS011;27586;51.124;4.182;2023-08-01T03:19:59;19.55;;;14.90;;
41903;SDS011;27586;51.124;4.182;2023-08-01T03:22:25;19.08;;;15.02;;
41903;SDS011;27586;51.124;4.182;2023-08-01T03:24:50;21.05;;;14.90;;
41903;SDS011;27586;51.124;4.182;2023-08-01T03:27:16;21.13;;;15.15;;
41903;SDS011;27586;51.124;4.182;2023-08-01T03:29:42;20.65;;;14.80;;
41903;SDS011;27586;51.124;4.182;2023-08-01T03:32:08;22.20;;;15.43;;
41903;SDS011;27586;51.124;4.182;2023-08-01T03:34:34;23.77;;;15.60;;
41903;SDS011;27586;51.124;4.182;2023-08-01T03:36:59;23.90;;;15.75;;
41903;SDS011;27586;51.124;4.182;2023-08-01T03:39:25;22.15;;;15.20;;
41903;SDS011;27586;51.124;4.182;2023-08-01T03:41:51;22.30;;;16.33;;
41903;SDS011;27586;51.124;4.182;2023-08-01T03:44:16;19.70;;;16.02;;
41903;SDS011;27586;51.124;4.182;2023-08-01T03:46:42;24.40;;;17.13;;
41903;SDS011;27586;51.124;4.182;2023-08-01T03:49:08;20.40;;;15.68;;
41903;SDS011;27586;51.124;4.182;2023-08-01T03:51:34;26.02;;;16.25;;
41903;SDS011;27586;51.124;4.182;2023-08-01T03:54:00;20.75;;;15.65;;
41903;SDS011;27586;51.124;4.182;2023-08-01T03:56:25;22.48;;;15.20;;
41903;SDS011;27586;51.124;4.182;2023-08-01T03:58:52;22.63;;;14.95;;
41903;SDS011;27586;51.124;4.182;2023-08-01T04:01:18;21.88;;;15.07;;
41903;SDS011;27586;51.124;4.182;2023-08-01T04:03:44;18.67;;;14.38;;
41903;SDS011;27586;51.124;4.182;2023-08-01T04:06:10;19.92;;;15.27;;
41903;SDS011;27586;51.124;4.182;2023-08-01T04:08:40;19.75;;;14.43;;
41903;SDS011;27586;51.124;4.182;2023-08-01T04:11:05;18.00;;;12.93;;
41903;SDS011;27586;51.124;4.182;2023-08-01T04:13:31;21.50;;;13.48;;
41903;SDS011;27586;51.124;4.182;2023-08-01T04:15:57;20.33;;;12.90;;
41903;SDS011;27586;51.124;4.182;2023-08-01T04:18:22;20.17;;;13.13;;
41903;SDS011;27586;51.124;4.182;2023-08-01T04:20:48;21.45;;;12.15;;
41903;SDS011;27586;51.124;4.182;2023-08-01T04:23:13;15.13;;;11.57;;
41903;SDS011;27586;51.124;4.182;2023-08-01T04:25:40;18.35;;;11.32;;
41903;SDS011;27586;51.124;4.182;2023-08-01T04:28:06;18.25;;;12.85;;
41903;SDS011;27586;51.124;4.182;2023-08-01T04:30:31;16.17;;;11.80;;
41903;SDS011;27586;51.124;4.182;2023-08-01T04:32:58;17.60;;;12.07;;
41903;SDS011;27586;51.124;4.182;2023-08-01T04:35:24;13.45;;;10.57;;
41903;SDS011;27586;51.124;4.182;2023-08-01T04:37:49;15.18;;;10.95;;
41903;SDS011;27586;51.124;4.182;2023-08-01T04:40:15;17.13;;;10.93;;
41903;SDS011;27586;51.124;4.182;2023-08-01T04:42:40;16.90;;;10.45;;
41903;SDS011;27586;51.124;4.182;2023-08-01T04:45:06;19.15;;;9.85;;
41903;SDS011;27586;51.124;4.182;2023-08-01T04:47:32;16.50;;;11.13;;
41903;SDS011;27586;51.124;4.182;2023-08-01T04:49:58;14.57;;;10.88;;
41903;SDS011;27586;51.124;4.182;2023-08-01T04:52:23;16.23;;;9.48;;
41903;SDS011;27586;51.124;4.182;2023-08-01T04:54:49;15.10;;;9.73;;
41903;SDS011;27586;51.124;4.182;2023-08-01T04:57:15;17.67;;;10.13;;
41903;SDS011;27586;51.124;4.182;2023-08-01T04:59:40;14.30;;;10.65;;
41903;SDS011;27586;51.124;4.182;2023-08-01T05:02:06;18.40;;;10.00;;
41903;SDS011;27586;51.124;4.182;2023-08-01T05:04:31;16.30;;;9.93;;
41903;SDS011;27586;51.124;4.182;2023-08-01T05:06:57;16.10;;;9.68;;
41903;SDS011;27586;51.124;4.182;2023-08-01T05:09:23;15.55;;;10.05;;
41903;SDS011;27586;51.124;4.182;2023-08-01T05:11:48;12.27;;;9.05;;
41903;SDS011;27586;51.124;4.182;2023-08-01T05:14:14;15.60;;;9.60;;
41903;SDS011;27586;51.124;4.182;2023-08-01T05:16:39;12.95;;;8.80;;
41903;SDS011;27586;51.124;4.182;2023-08-01T05:19:05;14.77;;;9.82;;
41903;SDS011;27586;51.124;4.182;2023-08-01T05:21:31;17.58;;;9.50;;
41903;SDS011;27586;51.124;4.182;2023-08-01T05:23:56;16.50;;;10.35;;
41903;SDS011;27586;51.124;4.182;2023-08-01T05:26:22;16.48;;;9.38;;
41903;SDS011;27586;51.124;4.182;2023-08-01T05:28:48;20.73;;;9.73;;
41903;SDS011;27586;51.124;4.182;2023-08-01T05:31:13;16.58;;;10.20;;
41903;SDS011;27586;51.124;4.182;2023-08-01T05:33:39;18.25;;;10.75;;
41903;SDS011;27586;51.124;4.182;2023-08-01T05:36:04;15.50;;;10.13;;
41903;SDS011;27586;51.124;4.182;2023-08-01T05:38:30;17.08;;;10.40;;
41903;SDS011;27586;51.124;4.182;2023-08-01T05:40:56;14.55;;;9.52;;
41903;SDS011;27586;51.124;4.182;2023-08-01T05:43:21;15.48;;;9.68;;
41903;SDS011;27586;51.124;4.182;2023-08-01T05:45:47;12.15;;;8.93;;
41903;SDS011;27586;51.124;4.182;2023-08-01T05:48:13;19.20;;;9.40;;
41903;SDS011;27586;51.124;4.182;2023-08-01T05:50:39;14.77;;;8.95;;
41903;SDS011;27586;51.124;4.182;2023-08-01T05:53:04;15.50;;;9.45;;
41903;SDS011;27586;51.124;4.182;2023-08-01T05:55:30;15.43;;;8.70;;
41903;SDS011;27586;51.124;4.182;2023-08-01T05:57:56;15.82;;;9.38;;
41903;SDS011;27586;51.124;4.182;2023-08-01T06:00:22;15.23;;;9.35;;
41903;SDS011;27586;51.124;4.182;2023-08-01T06:02:48;15.50;;;8.93;;
41903;SDS011;27586;51.124;4.182;2023-08-01T06:05:14;14.43;;;9.40;;
41903;SDS011;27586;51.124;4.182;2023-08-01T06:07:40;12.73;;;8.90;;
41903;SDS011;27586;51.124;4.182;2023-08-01T06:10:06;10.77;;;8.57;;
41903;SDS011;27586;51.124;4.182;2023-08-01T06:12:32;13.88;;;9.07;;
41903;SDS011;27586;51.124;4.182;2023-08-01T06:14:58;14.55;;;9.05;;
41903;SDS011;27586;51.124;4.182;2023-08-01T06:17:23;14.80;;;8.43;;
41903;SDS011;27586;51.124;4.182;2023-08-01T06:19:49;12.07;;;8.60;;
41903;SDS011;27586;51.124;4.182;2023-08-01T06:22:16;15.00;;;9.05;;
41903;SDS011;27586;51.124;4.182;2023-08-01T06:24:41;12.70;;;9.38;;
41903;SDS011;27586;51.124;4.182;2023-08-01T06:27:07;14.30;;;9.18;;
41903;SDS011;27586;51.124;4.182;2023-08-01T06:29:33;17.15;;;8.82;;
41903;SDS011;27586;51.124;4.182;2023-08-01T06:31:58;14.75;;;10.32;;
41903;SDS011;27586;51.124;4.182;2023-08-01T06:34:24;14.57;;;9.45;;
41903;SDS011;27586;51.124;4.182;2023-08-01T06:36:50;17.10;;;9.73;;
41903;SDS011;27586;51.124;4.182;2023-08-01T06:39:16;14.35;;;9.48;;
41903;SDS011;27586;51.124;4.182;2023-08-01T06:41:41;13.95;;;10.30;;
41903;SDS011;27586;51.124;4.182;2023-08-01T06:44:07;13.25;;;9.45;;
41903;SDS011;27586;51.124;4.182;2023-08-01T06:46:33;14.88;;;9.82;;
41903;SDS011;27586;51.124;4.182;2023-08-01T06:48:58;14.48;;;9.75;;
41903;SDS011;27586;51.124;4.182;2023-08-01T06:51:24;14.43;;;9.18;;
41903;SDS011;27586;51.124;4.182;2023-08-01T06:53:49;14.23;;;9.07;;
41903;SDS011;27586;51.124;4.182;2023-08-01T06:56:15;11.13;;;8.57;;
41903;SDS011;27586;51.124;4.182;2023-08-01T06:58:41;14.20;;;9.13;;
41903;SDS011;27586;51.124;4.182;2023-08-01T07:01:06;14.32;;;8.82;;
41903;SDS011;27586;51.124;4.182;2023-08-01T07:03:32;15.80;;;8.80;;
41903;SDS011;27586;51.124;4.182;2023-08-01T07:05:58;12.50;;;8.13;;
41903;SDS011;27586;51.124;4.182;2023-08-01T07:08:23;13.35;;;8.20;;
41903;SDS011;27586;51.124;4.182;2023-08-01T07:10:49;11.32;;;7.75;;
41903;SDS011;27586;51.124;4.182;2023-08-01T07:13:14;13.00;;;7.75;;
41903;SDS011;27586;51.124;4.182;2023-08-01T07:15:41;11.50;;;7.93;;
41903;SDS011;27586;51.124;4.182;2023-08-01T07:18:07;15.23;;;7.82;;
41903;SDS011;27586;51.124;4.182;2023-08-01T07:20:33;13.13;;;7.65;;
41903;SDS011;27586;51.124;4.182;2023-08-01T07:22:58;13.10;;;6.80;;
41903;SDS011;27586;51.124;4.182;2023-08-01T07:25:24;11.85;;;7.03;;
41903;SDS011;27586;51.124;4.182;2023-08-01T07:27:50;10.73;;;7.30;;
41903;SDS011;27586;51.124;4.182;2023-08-01T07:30:16;13.63;;;6.70;;
41903;SDS011;27586;51.124;4.182;2023-08-01T07:32:41;10.55;;;6.50;;
41903;SDS011;27586;51.124;4.182;2023-08-01T07:35:08;11.15;;;6.70;;
41903;SDS011;27586;51.124;4.182;2023-08-01T07:37:34;11.73;;;6.88;;
41903;SDS011;27586;51.124;4.182;2023-08-01T07:39:59;16.13;;;7.30;;
41903;SDS011;27586;51.124;4.182;2023-08-01T07:42:25;11.30;;;7.05;;
41903;SDS011;27586;51.124;4.182;2023-08-01T07:44:51;11.55;;;6.65;;
41903;SDS011;27586;51.124;4.182;2023-08-01T07:47:16;9.25;;;6.72;;
41903;SDS011;27586;51.124;4.182;2023-08-01T07:49:42;10.38;;;6.30;;
41903;SDS011;27586;51.124;4.182;2023-08-01T07:52:08;13.27;;;6.82;;
41903;SDS011;27586;51.124;4.182;2023-08-01T07:54:33;11.07;;;6.97;;
41903;SDS011;27586;51.124;4.182;2023-08-01T07:56:59;12.70;;;6.60;;
41903;SDS011;27586;51.124;4.182;2023-08-01T07:59:25;14.70;;;6.50;;
41903;SDS011;27586;51.124;4.182;2023-08-01T08:01:50;10.43;;;6.28;;
41903;SDS011;27586;51.124;4.182;2023-08-01T08:04:17;10.88;;;6.30;;
41903;SDS011;27586;51.124;4.182;2023-08-01T08:06:43;10.80;;;5.72;;
41903;SDS011;27586;51.124;4.182;2023-08-01T08:09:09;10.40;;;5.40;;
41903;SDS011;27586;51.124;4.182;2023-08-01T08:11:35;8.55;;;5.25;;
41903;SDS011;27586;51.124;4.182;2023-08-01T08:14:00;11.30;;;5.75;;
41903;SDS011;27586;51.124;4.182;2023-08-01T08:16:26;9.88;;;5.57;;
41903;SDS011;27586;51.124;4.182;2023-08-01T08:18:51;10.20;;;5.60;;
41903;SDS011;27586;51.124;4.182;2023-08-01T08:21:17;7.43;;;5.07;;
41903;SDS011;27586;51.124;4.182;2023-08-01T08:23:43;9.55;;;5.30;;
41903;SDS011;27586;51.124;4.182;2023-08-01T08:26:08;9.13;;;4.90;;
41903;SDS011;27586;51.124;4.182;2023-08-01T08:28:34;10.60;;;4.97;;
41903;SDS011;27586;51.124;4.182;2023-08-01T08:31:00;10.23;;;5.00;;
41903;SDS011;27586;51.124;4.182;2023-08-01T08:33:29;8.13;;;4.25;;
41903;SDS011;27586;51.124;4.182;2023-08-01T08:35:55;9.27;;;5.00;;
41903;SDS011;27586;51.124;4.182;2023-08-01T08:38:20;9.63;;;4.85;;
41903;SDS011;27586;51.124;4.182;2023-08-01T08:43:48;8.20;;;4.25;;
41903;SDS011;27586;51.124;4.182;2023-08-01T08:46:16;5.93;;;3.58;;
41903;SDS011;27586;51.124;4.182;2023-08-01T08:48:42;9.20;;;4.20;;
41903;SDS011;27586;51.124;4.182;2023-08-01T08:51:09;10.93;;;4.78;;
41903;SDS011;27586;51.124;4.182;2023-08-01T08:53:36;7.22;;;3.60;;
41903;SDS011;27586;51.124;4.182;2023-08-01T08:56:02;7.22;;;3.90;;
41903;SDS011;27586;51.124;4.182;2023-08-01T08:58:31;9.50;;;3.50;;
41903;SDS011;27586;51.124;4.182;2023-08-01T09:00:58;7.05;;;3.22;;
41903;SDS011;27586;51.124;4.182;2023-08-01T09:03:27;7.00;;;3.53;;
41903;SDS011;27586;51.124;4.182;2023-08-01T09:06:37;7.95;;;3.38;;
41903;SDS011;27586;51.124;4.182;2023-08-01T09:08:47;7.47;;;3.53;;
41903;SDS011;27586;51.124;4.182;2023-08-01T09:11:19;6.72;;;3.13;;
41903;SDS011;27586;51.124;4.182;2023-08-01T09:13:45;5.18;;;3.13;;
41903;SDS011;27586;51.124;4.182;2023-08-01T09:16:12;7.40;;;3.65;;
41903;SDS011;27586;51.124;4.182;2023-08-01T09:18:49;6.93;;;3.50;;
41903;SDS011;27586;51.124;4.182;2023-08-01T09:21:21;8.75;;;3.38;;
41903;SDS011;27586;51.124;4.182;2023-08-01T09:23:47;6.20;;;3.10;;
41903;SDS011;27586;51.124;4.182;2023-08-01T09:26:16;8.50;;;3.35;;
41903;SDS011;27586;51.124;4.182;2023-08-01T09:28:55;7.40;;;3.50;;
41903;SDS011;27586;51.124;4.182;2023-08-01T09:31:31;8.57;;;3.28;;
41903;SDS011;27586;51.124;4.182;2023-08-01T09:34:01;7.10;;;2.97;;
41903;SDS011;27586;51.124;4.182;2023-08-01T09:36:34;8.32;;;3.25;;
41903;SDS011;27586;51.124;4.182;2023-08-01T09:39:01;8.82;;;3.58;;
41903;SDS011;27586;51.124;4.182;2023-08-01T09:41:30;6.88;;;3.33;;
41903;SDS011;27586;51.124;4.182;2023-08-01T09:43:57;7.10;;;2.88;;
41903;SDS011;27586;51.124;4.182;2023-08-01T09:46:23;8.75;;;3.30;;
41903;SDS011;27586;51.124;4.182;2023-08-01T09:48:49;9.57;;;3.00;;
41903;SDS011;27586;51.124;4.182;2023-08-01T09:51:15;7.85;;;2.95;;
41903;SDS011;27586;51.124;4.182;2023-08-01T09:53:55;6.10;;;2.70;;
41903;SDS011;27586;51.124;4.182;2023-08-01T09:56:26;6.25;;;2.78;;
41903;SDS011;27586;51.124;4.182;2023-08-01T09:58:53;7.35;;;2.97;;
41903;SDS011;27586;51.124;4.182;2023-08-01T10:01:21;9.80;;;3.42;;
41903;SDS011;27586;51.124;4.182;2023-08-01T10:03:50;9.48;;;3.10;;
41903;SDS011;27586;51.124;4.182;2023-08-01T10:06:18;6.72;;;2.78;;
41903;SDS011;27586;51.124;4.182;2023-08-01T10:08:45;8.90;;;3.13;;
41903;SDS011;27586;51.124;4.182;2023-08-01T10:11:12;8.35;;;2.95;;
41903;SDS011;27586;51.124;4.182;2023-08-01T10:13:41;8.13;;;3.20;;
41903;SDS011;27586;51.124;4.182;2023-08-01T10:16:08;4.95;;;2.60;;
41903;SDS011;27586;51.124;4.182;2023-08-01T10:18:34;6.20;;;2.50;;
41903;SDS011;27586;51.124;4.182;2023-08-01T10:21:02;7.32;;;2.70;;
41903;SDS011;27586;51.124;4.182;2023-08-01T10:23:30;6.53;;;2.58;;
41903;SDS011;27586;51.124;4.182;2023-08-01T10:25:58;5.88;;;2.35;;
41903;SDS011;27586;51.124;4.182;2023-08-01T10:28:34;6.32;;;2.60;;
41903;SDS011;27586;51.124;4.182;2023-08-01T10:33:37;7.20;;;2.30;;
41903;SDS011;27586;51.124;4.182;2023-08-01T10:38:53;8.13;;;2.53;;
41903;SDS011;27586;51.124;4.182;2023-08-01T10:41:28;4.82;;;2.05;;
41903;SDS011;27586;51.124;4.182;2023-08-01T10:44:08;6.57;;;2.80;;
41903;SDS011;27586;51.124;4.182;2023-08-01T10:49:32;5.70;;;2.25;;
41903;SDS011;27586;51.124;4.182;2023-08-01T10:54:45;7.57;;;2.53;;
41903;SDS011;27586;51.124;4.182;2023-08-01T10:57:17;6.38;;;2.20;;
41903;SDS011;27586;51.124;4.182;2023-08-01T10:59:44;4.97;;;2.03;;
41903;SDS011;27586;51.124;4.182;2023-08-01T11:02:10;6.55;;;2.28;;
41903;SDS011;27586;51.124;4.182;2023-08-01T11:04:36;6.25;;;2.08;;
41903;SDS011;27586;51.124;4.182;2023-08-01T11:07:03;6.47;;;2.13;;
41903;SDS011;27586;51.124;4.182;2023-08-01T11:09:29;4.30;;;1.90;;
41903;SDS011;27586;51.124;4.182;2023-08-01T11:11:57;5.53;;;1.80;;
41903;SDS011;27586;51.124;4.182;2023-08-01T11:14:28;5.03;;;1.92;;
41903;SDS011;27586;51.124;4.182;2023-08-01T11:16:54;5.57;;;1.83;;
41903;SDS011;27586;51.124;4.182;2023-08-01T11:19:25;6.05;;;1.83;;
41903;SDS011;27586;51.124;4.182;2023-08-01T11:21:54;5.22;;;1.75;;
41903;SDS011;27586;51.124;4.182;2023-08-01T11:24:25;3.65;;;1.45;;
41903;SDS011;27586;51.124;4.182;2023-08-01T11:26:51;4.03;;;1.60;;
41903;SDS011;27586;51.124;4.182;2023-08-01T11:29:19;5.63;;;1.85;;
41903;SDS011;27586;51.124;4.182;2023-08-01T11:31:55;3.15;;;1.83;;
41903;SDS011;27586;51.124;4.182;2023-08-01T11:34:22;5.25;;;1.83;;
41903;SDS011;27586;51.124;4.182;2023-08-01T11:36:48;5.60;;;2.17;;
41903;SDS011;27586;51.124;4.182;2023-08-01T11:39:15;5.97;;;2.03;;
41903;SDS011;27586;51.124;4.182;2023-08-01T11:41:42;5.53;;;1.90;;
41903;SDS011;27586;51.124;4.182;2023-08-01T11:44:10;3.97;;;1.60;;
41903;SDS011;27586;51.124;4.182;2023-08-01T11:46:37;5.57;;;1.60;;
41903;SDS011;27586;51.124;4.182;2023-08-01T11:49:04;5.13;;;1.80;;
41903;SDS011;27586;51.124;4.182;2023-08-01T11:51:37;4.60;;;1.65;;
41903;SDS011;27586;51.124;4.182;2023-08-01T11:54:04;2.83;;;1.35;;
41903;SDS011;27586;51.124;4.182;2023-08-01T11:56:30;4.05;;;1.98;;
41903;SDS011;27586;51.124;4.182;2023-08-01T11:58:56;2.65;;;1.30;;
41903;SDS011;27586;51.124;4.182;2023-08-01T12:01:23;4.25;;;1.75;;
41903;SDS011;27586;51.124;4.182;2023-08-01T12:03:53;3.50;;;1.50;;
41903;SDS011;27586;51.124;4.182;2023-08-01T12:06:20;3.70;;;1.67;;
41903;SDS011;27586;51.124;4.182;2023-08-01T12:08:48;6.38;;;1.95;;
41903;SDS011;27586;51.124;4.182;2023-08-01T12:11:22;4.82;;;1.63;;
41903;SDS011;27586;51.124;4.182;2023-08-01T12:16:29;4.72;;;1.70;;
41903;SDS011;27586;51.124;4.182;2023-08-01T12:18:56;4.65;;;1.65;;
41903;SDS011;27586;51.124;4.182;2023-08-01T12:21:22;5.93;;;1.90;;
41903;SDS011;27586;51.124;4.182;2023-08-01T12:23:48;6.80;;;2.00;;
41903;SDS011;27586;51.124;4.182;2023-08-01T12:26:13;5.43;;;1.85;;
41903;SDS011;27586;51.124;4.182;2023-08-01T12:28:39;3.33;;;1.77;;
41903;SDS011;27586;51.124;4.182;2023-08-01T12:31:05;3.10;;;1.58;;
41903;SDS011;27586;51.124;4.182;2023-08-01T12:33:31;4.13;;;1.73;;
41903;SDS011;27586;51.124;4.182;2023-08-01T12:35:58;4.38;;;1.75;;
41903;SDS011;27586;51.124;4.182;2023-08-01T12:38:27;2.53;;;1.55;;
41903;SDS011;27586;51.124;4.182;2023-08-01T12:40:53;4.63;;;1.70;;
41903;SDS011;27586;51.124;4.182;2023-08-01T12:43:18;2.20;;;1.50;;
41903;SDS011;27586;51.124;4.182;2023-08-01T12:45:45;3.13;;;1.77;;
41903;SDS011;27586;51.124;4.182;2023-08-01T12:48:11;2.45;;;1.42;;
41903;SDS011;27586;51.124;4.182;2023-08-01T12:50:37;6.32;;;1.55;;
41903;SDS011;27586;51.124;4.182;2023-08-01T12:53:02;5.05;;;1.63;;
41903;SDS011;27586;51.124;4.182;2023-08-01T12:55:28;4.38;;;1.65;;
41903;SDS011;27586;51.124;4.182;2023-08-01T12:57:53;3.55;;;1.70;;
41903;SDS011;27586;51.124;4.182;2023-08-01T13:00:19;4.28;;;1.88;;
41903;SDS011;27586;51.124;4.182;2023-08-01T13:02:45;7.72;;;2.00;;
41903;SDS011;27586;51.124;4.182;2023-08-01T13:05:12;4.50;;;1.92;;
41903;SDS011;27586;51.124;4.182;2023-08-01T13:07:38;5.30;;;1.73;;
41903;SDS011;27586;51.124;4.182;2023-08-01T13:10:03;4.65;;;2.10;;
41903;SDS011;27586;51.124;4.182;2023-08-01T13:12:29;3.85;;;1.80;;
41903;SDS011;27586;51.124;4.182;2023-08-01T13:14:55;6.28;;;2.40;;
41903;SDS011;27586;51.124;4.182;2023-08-01T13:17:20;6.75;;;2.00;;
41903;SDS011;27586;51.124;4.182;2023-08-01T13:19:46;4.95;;;2.10;;
41903;SDS011;27586;51.124;4.182;2023-08-01T13:22:12;3.10;;;1.95;;
41903;SDS011;27586;51.124;4.182;2023-08-01T13:24:37;4.07;;;2.17;;
41903;SDS011;27586;51.124;4.182;2023-08-01T13:27:04;4.47;;;1.95;;
41903;SDS011;27586;51.124;4.182;2023-08-01T13:29:30;5.10;;;2.00;;
41903;SDS011;27586;51.124;4.182;2023-08-01T13:31:55;5.85;;;2.17;;
41903;SDS011;27586;51.124;4.182;2023-08-01T13:34:21;5.47;;;2.45;;
41903;SDS011;27586;51.124;4.182;2023-08-01T13:36:47;6.15;;;2.35;;
41903;SDS011;27586;51.124;4.182;2023-08-01T13:39:12;5.15;;;2.10;;
41903;SDS011;27586;51.124;4.182;2023-08-01T13:41:38;4.10;;;2.00;;
41903;SDS011;27586;51.124;4.182;2023-08-01T13:44:04;4.53;;;2.00;;
41903;SDS011;27586;51.124;4.182;2023-08-01T13:46:29;7.13;;;2.25;;
41903;SDS011;27586;51.124;4.182;2023-08-01T13:48:55;3.03;;;1.80;;
41903;SDS011;27586;51.124;4.182;2023-08-01T13:51:21;3.55;;;1.83;;
41903;SDS011;27586;51.124;4.182;2023-08-01T13:53:47;4.25;;;2.00;;
41903;SDS011;27586;51.124;4.182;2023-08-01T13:56:13;3.00;;;1.88;;
41903;SDS011;27586;51.124;4.182;2023-08-01T13:58:38;8.48;;;2.28;;
41903;SDS011;27586;51.124;4.182;2023-08-01T14:01:05;4.40;;;2.20;;
41903;SDS011;27586;51.124;4.182;2023-08-01T14:03:34;5.88;;;2.20;;
41903;SDS011;27586;51.124;4.182;2023-08-01T14:06:11;6.20;;;2.20;;
41903;SDS011;27586;51.124;4.182;2023-08-01T14:08:38;5.40;;;1.90;;
41903;SDS011;27586;51.124;4.182;2023-08-01T14:11:05;5.25;;;2.20;;
41903;SDS011;27586;51.124;4.182;2023-08-01T14:13:33;7.82;;;3.03;;
41903;SDS011;27586;51.124;4.182;2023-08-01T14:15:59;4.78;;;2.25;;
41903;SDS011;27586;51.124;4.182;2023-08-01T14:18:27;5.80;;;2.15;;
41903;SDS011;27586;51.124;4.182;2023-08-01T14:20:55;5.10;;;2.15;;
41903;SDS011;27586;51.124;4.182;2023-08-01T14:23:21;5.03;;;2.08;;
41903;SDS011;27586;51.124;4.182;2023-08-01T14:25:48;8.60;;;2.45;;
41903;SDS011;27586;51.124;4.182;2023-08-01T14:28:14;4.55;;;2.45;;
41903;SDS011;27586;51.124;4.182;2023-08-01T14:30:39;6.82;;;2.22;;
41903;SDS011;27586;51.124;4.182;2023-08-01T14:33:06;5.97;;;2.15;;
41903;SDS011;27586;51.124;4.182;2023-08-01T14:35:33;5.20;;;2.33;;
41903;SDS011;27586;51.124;4.182;2023-08-01T14:38:02;4.95;;;2.22;;
41903;SDS011;27586;51.124;4.182;2023-08-01T14:40:29;5.78;;;2.22;;
41903;SDS011;27586;51.124;4.182;2023-08-01T14:42:55;4.65;;;2.42;;
41903;SDS011;27586;51.124;4.182;2023-08-01T14:45:21;6.65;;;2.47;;
41903;SDS011;27586;51.124;4.182;2023-08-01T14:47:47;7.05;;;2.15;;
41903;SDS011;27586;51.124;4.182;2023-08-01T14:50:13;5.78;;;2.10;;